»·PEaware :: FJS1399 KRNO-KFAT

FJS1399 :: KRNO-KFAT

FLIGHT INFORMATION

Flight Status: Arrived
Operator: Unknown
More flights by this operator :: More flights under this callsign
Pilot: David C. (16084)
Aircraft: BOMBARDIER BD-100 CHALLENGER 300
(CL30)
More flights by this aircraft type
Origin: KRNO Reno/Tahoe Intl
United States
Destination: KFAT Fresno Yosemite Intl
United States
More flights between these airports :: More routes between these airports
Route: ZEFFR6 DARBI V165 CZQ
File this flight plan on PilotEdge
Remarks:
Altitude:
(Current/Filed)
21,000ft
Speed:
(Current/Filed)
417kts
Departed: 03-Aug-18 08:40 AM
Arrived: 03-Aug-18 09:13 AM
Distance/Time
Traveled:
163nm/0:33
Distance/Time
To Go:
Arrived

Flight Plot

Page will automatically refresh every two minutes.

Flight plan parsing failed; only flown route is shown


Map Options




Map Legend


Flown Route
Filed Route
Departure Airport
Arrival Airport
Navaid (VOR, NDB)
Fix

Horizontal Profiles

Position Reports

Time Latitude Longitude Heading Altitude Ground
Speed
03-Aug-18 08:08 39.506247 -119.764466 266 4422ft 0kts
03-Aug-18 08:09 39.506247 -119.764466 266 4422ft 0kts
03-Aug-18 08:10 39.506247 -119.764466 266 4422ft 0kts
03-Aug-18 08:11 39.506247 -119.764466 266 4422ft 0kts
03-Aug-18 08:12 39.506247 -119.764466 266 4422ft 0kts
03-Aug-18 08:13 39.506247 -119.764466 266 4422ft 0kts
03-Aug-18 08:14 39.506247 -119.764466 266 4422ft 0kts
03-Aug-18 08:15 39.506247 -119.764466 266 4422ft 0kts
03-Aug-18 08:16 39.506247 -119.764466 266 4422ft 0kts
03-Aug-18 08:17 39.506247 -119.764466 266 4422ft 0kts
03-Aug-18 08:18 39.506247 -119.764466 266 4422ft 0kts
03-Aug-18 08:19 39.506247 -119.764466 266 4422ft 0kts
03-Aug-18 08:20 39.506247 -119.764466 266 4422ft 0kts
03-Aug-18 08:21 39.506247 -119.764466 266 4422ft 0kts
03-Aug-18 08:22 39.506247 -119.764466 266 4422ft 0kts
03-Aug-18 08:23 39.506247 -119.764466 266 4422ft 0kts
03-Aug-18 08:24 39.506247 -119.764466 266 4422ft 0kts
03-Aug-18 08:25 39.506247 -119.764466 266 4422ft 0kts
03-Aug-18 08:26 39.506247 -119.764466 266 4422ft 0kts
03-Aug-18 08:27 39.506247 -119.764466 266 4422ft 0kts
03-Aug-18 08:28 39.506247 -119.764466 265 4422ft 0kts
03-Aug-18 08:29 39.506247 -119.764466 265 4422ft 0kts
03-Aug-18 08:30 39.506247 -119.764466 265 4422ft 0kts
03-Aug-18 08:31 39.506247 -119.764466 265 4422ft 0kts
03-Aug-18 08:32 39.506247 -119.764466 265 4422ft 0kts
03-Aug-18 08:33 39.506247 -119.764466 265 4422ft 0kts
03-Aug-18 08:34 39.506247 -119.764466 265 4422ft 0kts
03-Aug-18 08:35 39.506536 -119.765315 326 4422ft 6kts
03-Aug-18 08:36 39.510124 -119.765748 19 4422ft 16kts
03-Aug-18 08:37 39.513203 -119.765158 358 4422ft 12kts
03-Aug-18 08:38 39.513683 -119.765579 276 4422ft 0kts
03-Aug-18 08:39 39.513683 -119.765579 276 4422ft 0kts
03-Aug-18 08:40 39.513028 -119.766695 177 4422ft 0kts
03-Aug-18 08:41 39.487232 -119.766051 181 5308ft 207kts
03-Aug-18 08:42 39.415132 -119.768826 182 8950ft 281kts
03-Aug-18 08:43 39.336040 -119.769297 182 12474ft 317kts
03-Aug-18 08:44 39.239431 -119.766213 181 15989ft 383kts
03-Aug-18 08:45 39.130910 -119.762127 183 19186ft 402kts
03-Aug-18 08:46 39.020056 -119.757994 183 20519ft 403kts
03-Aug-18 08:47 38.907161 -119.753822 182 21217ft 416kts
03-Aug-18 08:48 38.792444 -119.749525 182 21221ft 416kts
03-Aug-18 08:49 38.677122 -119.745215 182 21232ft 415kts
03-Aug-18 08:50 38.561963 -119.740932 182 21280ft 414kts
03-Aug-18 08:51 38.447593 -119.736696 182 21287ft 414kts
03-Aug-18 08:52 38.332486 -119.732444 182 21285ft 414kts
03-Aug-18 08:53 38.218477 -119.735845 186 21286ft 412kts
03-Aug-18 08:54 38.105635 -119.742786 186 21295ft 412kts
03-Aug-18 08:55 37.992306 -119.749603 186 21190ft 412kts
03-Aug-18 08:56 37.879499 -119.756344 186 20602ft 411kts
03-Aug-18 08:57 37.771914 -119.762742 186 19121ft 378kts
03-Aug-18 08:58 37.670992 -119.768740 185 17625ft 355kts
03-Aug-18 08:59 37.574552 -119.774463 185 16123ft 343kts
03-Aug-18 09:00 37.478672 -119.780121 184 15056ft 351kts
03-Aug-18 09:01 37.381845 -119.785795 184 14062ft 347kts
03-Aug-18 09:02 37.288277 -119.761767 162 13256ft 354kts
03-Aug-18 09:03 37.207639 -119.726216 162 10450ft 298kts
03-Aug-18 09:04 37.136748 -119.696406 162 9007ft 258kts
03-Aug-18 09:05 37.068635 -119.667917 162 7872ft 255kts
03-Aug-18 09:06 37.002424 -119.641041 161 5672ft 249kts
03-Aug-18 09:07 36.935303 -119.638156 189 4437ft 242kts
03-Aug-18 09:08 36.871989 -119.663045 204 3166ft 236kts
03-Aug-18 09:09 36.816880 -119.699847 204 1611ft 210kts
03-Aug-18 09:10 36.775783 -119.684273 116 1634ft 158kts
03-Aug-18 09:11 36.759168 -119.647016 163 1568ft 122kts
03-Aug-18 09:12 36.757564 -119.684409 304 812ft 127kts
03-Aug-18 09:13 36.775975 -119.716115 306 342ft 63kts
03-Aug-18 09:14 36.779489 -119.724260 213 342ft 0kts
03-Aug-18 09:15 36.779229 -119.724467 211 342ft 15kts
03-Aug-18 09:16 36.778023 -119.728648 304 342ft 16kts

Navigation Log

Ident Type
Flight plan parsing failed, navigation log unavailable